sensor_id;sensor_type;location;lat;lon;timestamp;P1;durP1;ratioP1;P2;durP2;ratioP2
19016;SDS011;9641;51.494;6.670;2023-08-24T00:00:40;8.43;;;4.70;;
19016;SDS011;9641;51.494;6.670;2023-08-24T00:03:08;8.55;;;5.05;;
19016;SDS011;9641;51.494;6.670;2023-08-24T00:05:35;5.53;;;4.00;;
19016;SDS011;9641;51.494;6.670;2023-08-24T00:08:05;8.70;;;4.97;;
19016;SDS011;9641;51.494;6.670;2023-08-24T00:10:33;5.25;;;4.75;;
19016;SDS011;9641;51.494;6.670;2023-08-24T00:13:02;8.23;;;4.60;;
19016;SDS011;9641;51.494;6.670;2023-08-24T00:15:30;7.10;;;5.10;;
19016;SDS011;9641;51.494;6.670;2023-08-24T00:17:57;6.15;;;5.10;;
19016;SDS011;9641;51.494;6.670;2023-08-24T00:20:24;8.50;;;5.40;;
19016;SDS011;9641;51.494;6.670;2023-08-24T00:22:52;11.23;;;5.70;;
19016;SDS011;9641;51.494;6.670;2023-08-24T00:25:19;5.63;;;4.85;;
19016;SDS011;9641;51.494;6.670;2023-08-24T00:27:49;9.45;;;5.82;;
19016;SDS011;9641;51.494;6.670;2023-08-24T00:30:17;10.00;;;5.05;;
19016;SDS011;9641;51.494;6.670;2023-08-24T00:32:46;8.30;;;5.43;;
19016;SDS011;9641;51.494;6.670;2023-08-24T00:35:13;9.75;;;6.30;;
19016;SDS011;9641;51.494;6.670;2023-08-24T00:37:41;12.02;;;6.80;;
19016;SDS011;9641;51.494;6.670;2023-08-24T00:40:08;8.20;;;5.90;;
19016;SDS011;9641;51.494;6.670;2023-08-24T00:42:38;10.82;;;6.68;;
19016;SDS011;9641;51.494;6.670;2023-08-24T00:45:06;9.25;;;6.45;;
19016;SDS011;9641;51.494;6.670;2023-08-24T00:47:36;8.65;;;6.32;;
19016;SDS011;9641;51.494;6.670;2023-08-24T00:50:05;9.75;;;5.85;;
19016;SDS011;9641;51.494;6.670;2023-08-24T00:52:33;9.32;;;6.13;;
19016;SDS011;9641;51.494;6.670;2023-08-24T00:55:04;7.80;;;5.60;;
19016;SDS011;9641;51.494;6.670;2023-08-24T00:57:32;10.70;;;5.63;;
19016;SDS011;9641;51.494;6.670;2023-08-24T01:00:02;5.63;;;5.05;;
19016;SDS011;9641;51.494;6.670;2023-08-24T01:02:30;6.85;;;6.18;;
19016;SDS011;9641;51.494;6.670;2023-08-24T01:04:59;8.27;;;5.45;;
19016;SDS011;9641;51.494;6.670;2023-08-24T01:07:28;10.95;;;6.18;;
19016;SDS011;9641;51.494;6.670;2023-08-24T01:09:55;8.43;;;6.55;;
19016;SDS011;9641;51.494;6.670;2023-08-24T01:12:25;9.93;;;5.53;;
19016;SDS011;9641;51.494;6.670;2023-08-24T01:15:03;9.85;;;6.30;;
19016;SDS011;9641;51.494;6.670;2023-08-24T01:17:35;11.38;;;7.72;;
19016;SDS011;9641;51.494;6.670;2023-08-24T01:20:06;9.23;;;6.10;;
19016;SDS011;9641;51.494;6.670;2023-08-24T01:22:37;9.37;;;6.33;;
19016;SDS011;9641;51.494;6.670;2023-08-24T01:25:12;8.60;;;5.93;;
19016;SDS011;9641;51.494;6.670;2023-08-24T01:27:44;12.88;;;6.85;;
19016;SDS011;9641;51.494;6.670;2023-08-24T01:30:14;10.57;;;6.27;;
19016;SDS011;9641;51.494;6.670;2023-08-24T01:32:42;10.60;;;6.47;;
19016;SDS011;9641;51.494;6.670;2023-08-24T01:35:09;11.15;;;6.68;;
19016;SDS011;9641;51.494;6.670;2023-08-24T01:37:37;9.53;;;6.27;;
19016;SDS011;9641;51.494;6.670;2023-08-24T01:40:05;10.37;;;6.00;;
19016;SDS011;9641;51.494;6.670;2023-08-24T01:42:40;7.67;;;5.57;;
19016;SDS011;9641;51.494;6.670;2023-08-24T01:45:13;6.70;;;5.07;;
19016;SDS011;9641;51.494;6.670;2023-08-24T01:47:44;7.75;;;5.15;;
19016;SDS011;9641;51.494;6.670;2023-08-24T01:50:13;9.02;;;5.90;;
19016;SDS011;9641;51.494;6.670;2023-08-24T01:52:41;9.80;;;6.00;;
19016;SDS011;9641;51.494;6.670;2023-08-24T01:55:08;8.75;;;5.65;;
19016;SDS011;9641;51.494;6.670;2023-08-24T01:57:37;8.52;;;5.97;;
19016;SDS011;9641;51.494;6.670;2023-08-24T02:00:07;11.65;;;6.50;;
19016;SDS011;9641;51.494;6.670;2023-08-24T02:02:39;11.20;;;6.10;;
19016;SDS011;9641;51.494;6.670;2023-08-24T02:05:06;8.10;;;6.00;;
19016;SDS011;9641;51.494;6.670;2023-08-24T02:07:33;10.33;;;6.10;;
19016;SDS011;9641;51.494;6.670;2023-08-24T02:10:02;7.80;;;6.32;;
19016;SDS011;9641;51.494;6.670;2023-08-24T02:12:30;11.40;;;6.33;;
19016;SDS011;9641;51.494;6.670;2023-08-24T02:14:57;10.80;;;6.63;;
19016;SDS011;9641;51.494;6.670;2023-08-24T02:17:25;7.70;;;6.30;;
19016;SDS011;9641;51.494;6.670;2023-08-24T02:19:52;8.47;;;6.17;;
19016;SDS011;9641;51.494;6.670;2023-08-24T02:22:19;10.67;;;6.43;;
19016;SDS011;9641;51.494;6.670;2023-08-24T02:24:46;9.60;;;6.37;;
19016;SDS011;9641;51.494;6.670;2023-08-24T02:27:14;9.10;;;7.32;;
19016;SDS011;9641;51.494;6.670;2023-08-24T02:29:41;12.13;;;6.40;;
19016;SDS011;9641;51.494;6.670;2023-08-24T02:32:08;10.80;;;6.50;;
19016;SDS011;9641;51.494;6.670;2023-08-24T02:34:36;10.65;;;6.88;;
19016;SDS011;9641;51.494;6.670;2023-08-24T02:37:04;11.27;;;6.20;;
19016;SDS011;9641;51.494;6.670;2023-08-24T02:39:31;9.30;;;5.93;;
19016;SDS011;9641;51.494;6.670;2023-08-24T02:41:58;9.53;;;5.83;;
19016;SDS011;9641;51.494;6.670;2023-08-24T02:44:24;11.10;;;6.50;;
19016;SDS011;9641;51.494;6.670;2023-08-24T02:46:53;8.33;;;6.53;;
19016;SDS011;9641;51.494;6.670;2023-08-24T02:49:20;13.37;;;7.10;;
19016;SDS011;9641;51.494;6.670;2023-08-24T02:51:48;10.23;;;6.87;;
19016;SDS011;9641;51.494;6.670;2023-08-24T02:54:16;13.03;;;6.90;;
19016;SDS011;9641;51.494;6.670;2023-08-24T02:56:43;9.60;;;6.60;;
19016;SDS011;9641;51.494;6.670;2023-08-24T02:59:11;7.60;;;5.50;;
19016;SDS011;9641;51.494;6.670;2023-08-24T03:01:38;9.73;;;6.70;;
19016;SDS011;9641;51.494;6.670;2023-08-24T03:04:06;8.93;;;6.63;;
19016;SDS011;9641;51.494;6.670;2023-08-24T03:06:33;8.73;;;6.63;;
19016;SDS011;9641;51.494;6.670;2023-08-24T03:09:01;10.93;;;6.20;;
19016;SDS011;9641;51.494;6.670;2023-08-24T03:11:29;10.43;;;6.37;;
19016;SDS011;9641;51.494;6.670;2023-08-24T03:13:56;10.07;;;6.63;;
19016;SDS011;9641;51.494;6.670;2023-08-24T03:16:23;10.87;;;7.73;;
19016;SDS011;9641;51.494;6.670;2023-08-24T03:18:50;10.77;;;7.00;;
19016;SDS011;9641;51.494;6.670;2023-08-24T03:21:17;10.70;;;6.43;;
19016;SDS011;9641;51.494;6.670;2023-08-24T03:23:45;9.02;;;7.28;;
19016;SDS011;9641;51.494;6.670;2023-08-24T03:26:13;9.65;;;6.82;;
19016;SDS011;9641;51.494;6.670;2023-08-24T03:28:42;9.38;;;6.40;;
19016;SDS011;9641;51.494;6.670;2023-08-24T03:31:09;9.00;;;7.10;;
19016;SDS011;9641;51.494;6.670;2023-08-24T03:33:36;8.60;;;6.30;;
19016;SDS011;9641;51.494;6.670;2023-08-24T03:36:03;8.32;;;6.57;;
19016;SDS011;9641;51.494;6.670;2023-08-24T03:38:30;12.98;;;6.25;;
19016;SDS011;9641;51.494;6.670;2023-08-24T03:41:01;8.13;;;6.00;;
19016;SDS011;9641;51.494;6.670;2023-08-24T03:43:30;10.57;;;6.55;;
19016;SDS011;9641;51.494;6.670;2023-08-24T03:45:58;12.60;;;7.20;;
19016;SDS011;9641;51.494;6.670;2023-08-24T03:48:25;9.77;;;7.25;;
19016;SDS011;9641;51.494;6.670;2023-08-24T03:50:53;8.32;;;6.18;;
19016;SDS011;9641;51.494;6.670;2023-08-24T03:53:20;8.25;;;6.03;;
19016;SDS011;9641;51.494;6.670;2023-08-24T03:55:48;13.37;;;7.73;;
19016;SDS011;9641;51.494;6.670;2023-08-24T03:58:17;10.13;;;6.53;;
19016;SDS011;9641;51.494;6.670;2023-08-24T04:00:46;6.95;;;6.20;;
19016;SDS011;9641;51.494;6.670;2023-08-24T04:03:13;7.85;;;6.05;;
19016;SDS011;9641;51.494;6.670;2023-08-24T04:05:40;9.87;;;6.67;;
19016;SDS011;9641;51.494;6.670;2023-08-24T04:08:07;10.07;;;6.27;;
19016;SDS011;9641;51.494;6.670;2023-08-24T04:10:37;13.50;;;8.00;;
19016;SDS011;9641;51.494;6.670;2023-08-24T04:13:04;12.97;;;7.50;;
19016;SDS011;9641;51.494;6.670;2023-08-24T04:15:31;10.00;;;6.45;;
19016;SDS011;9641;51.494;6.670;2023-08-24T04:17:59;12.03;;;7.63;;
19016;SDS011;9641;51.494;6.670;2023-08-24T04:20:26;11.10;;;6.88;;
19016;SDS011;9641;51.494;6.670;2023-08-24T04:22:54;9.53;;;7.83;;
19016;SDS011;9641;51.494;6.670;2023-08-24T04:25:21;13.95;;;8.32;;
19016;SDS011;9641;51.494;6.670;2023-08-24T04:27:48;12.37;;;8.30;;
19016;SDS011;9641;51.494;6.670;2023-08-24T04:30:15;13.57;;;7.87;;
19016;SDS011;9641;51.494;6.670;2023-08-24T04:32:43;14.95;;;9.45;;
19016;SDS011;9641;51.494;6.670;2023-08-24T04:35:11;17.40;;;8.88;;
19016;SDS011;9641;51.494;6.670;2023-08-24T04:37:38;14.07;;;9.75;;
19016;SDS011;9641;51.494;6.670;2023-08-24T04:40:06;13.85;;;8.77;;
19016;SDS011;9641;51.494;6.670;2023-08-24T04:42:33;17.73;;;10.45;;
19016;SDS011;9641;51.494;6.670;2023-08-24T04:45:00;14.57;;;9.13;;
19016;SDS011;9641;51.494;6.670;2023-08-24T04:47:27;14.47;;;8.77;;
19016;SDS011;9641;51.494;6.670;2023-08-24T04:49:54;14.93;;;9.90;;
19016;SDS011;9641;51.494;6.670;2023-08-24T04:52:23;19.25;;;10.50;;
19016;SDS011;9641;51.494;6.670;2023-08-24T04:54:50;17.70;;;9.50;;
19016;SDS011;9641;51.494;6.670;2023-08-24T04:57:17;14.45;;;8.95;;
19016;SDS011;9641;51.494;6.670;2023-08-24T04:59:44;12.63;;;8.65;;
19016;SDS011;9641;51.494;6.670;2023-08-24T05:02:11;13.55;;;7.95;;
19016;SDS011;9641;51.494;6.670;2023-08-24T05:04:38;15.68;;;8.68;;
19016;SDS011;9641;51.494;6.670;2023-08-24T05:07:05;12.13;;;8.00;;
19016;SDS011;9641;51.494;6.670;2023-08-24T05:09:33;10.57;;;7.70;;
19016;SDS011;9641;51.494;6.670;2023-08-24T05:12:00;13.55;;;7.82;;
19016;SDS011;9641;51.494;6.670;2023-08-24T05:14:27;12.52;;;7.40;;
19016;SDS011;9641;51.494;6.670;2023-08-24T05:16:54;13.30;;;8.07;;
19016;SDS011;9641;51.494;6.670;2023-08-24T05:19:21;14.10;;;7.68;;
19016;SDS011;9641;51.494;6.670;2023-08-24T05:21:48;10.93;;;7.20;;
19016;SDS011;9641;51.494;6.670;2023-08-24T05:24:26;11.85;;;7.00;;
19016;SDS011;9641;51.494;6.670;2023-08-24T05:26:53;12.75;;;7.03;;
19016;SDS011;9641;51.494;6.670;2023-08-24T05:29:21;9.77;;;7.38;;
19016;SDS011;9641;51.494;6.670;2023-08-24T05:31:48;8.75;;;6.50;;
19016;SDS011;9641;51.494;6.670;2023-08-24T05:34:15;8.70;;;5.97;;
19016;SDS011;9641;51.494;6.670;2023-08-24T05:36:42;9.70;;;6.40;;
19016;SDS011;9641;51.494;6.670;2023-08-24T05:39:09;10.82;;;6.65;;
19016;SDS011;9641;51.494;6.670;2023-08-24T05:41:38;12.38;;;6.60;;
19016;SDS011;9641;51.494;6.670;2023-08-24T05:44:05;12.02;;;6.78;;
19016;SDS011;9641;51.494;6.670;2023-08-24T05:46:32;14.40;;;6.18;;
19016;SDS011;9641;51.494;6.670;2023-08-24T05:48:59;8.25;;;5.75;;
19016;SDS011;9641;51.494;6.670;2023-08-24T05:51:26;9.05;;;6.20;;
19016;SDS011;9641;51.494;6.670;2023-08-24T05:53:53;11.38;;;6.32;;
19016;SDS011;9641;51.494;6.670;2023-08-24T05:56:21;10.60;;;6.25;;
19016;SDS011;9641;51.494;6.670;2023-08-24T05:58:50;13.15;;;7.53;;
19016;SDS011;9641;51.494;6.670;2023-08-24T06:01:17;13.32;;;6.47;;
19016;SDS011;9641;51.494;6.670;2023-08-24T06:03:44;12.77;;;7.43;;
19016;SDS011;9641;51.494;6.670;2023-08-24T06:06:11;9.88;;;6.22;;
19016;SDS011;9641;51.494;6.670;2023-08-24T06:08:39;10.75;;;6.75;;
19016;SDS011;9641;51.494;6.670;2023-08-24T06:11:06;17.90;;;7.93;;
19016;SDS011;9641;51.494;6.670;2023-08-24T06:13:33;11.68;;;7.43;;
19016;SDS011;9641;51.494;6.670;2023-08-24T06:16:02;8.57;;;5.95;;
19016;SDS011;9641;51.494;6.670;2023-08-24T06:18:29;11.95;;;7.38;;
19016;SDS011;9641;51.494;6.670;2023-08-24T06:20:56;13.27;;;7.88;;
19016;SDS011;9641;51.494;6.670;2023-08-24T06:23:23;12.73;;;7.55;;
19016;SDS011;9641;51.494;6.670;2023-08-24T06:25:49;7.30;;;5.65;;
19016;SDS011;9641;51.494;6.670;2023-08-24T06:28:17;10.80;;;6.53;;
19016;SDS011;9641;51.494;6.670;2023-08-24T06:30:44;13.52;;;7.80;;
19016;SDS011;9641;51.494;6.670;2023-08-24T06:33:16;11.88;;;8.15;;
19016;SDS011;9641;51.494;6.670;2023-08-24T06:35:43;9.23;;;6.40;;
19016;SDS011;9641;51.494;6.670;2023-08-24T06:38:10;14.05;;;8.43;;
19016;SDS011;9641;51.494;6.670;2023-08-24T06:40:38;16.95;;;8.30;;
19016;SDS011;9641;51.494;6.670;2023-08-24T06:43:10;13.85;;;8.98;;
19016;SDS011;9641;51.494;6.670;2023-08-24T06:45:37;10.77;;;7.18;;
19016;SDS011;9641;51.494;6.670;2023-08-24T06:48:04;17.17;;;8.85;;
19016;SDS011;9641;51.494;6.670;2023-08-24T06:50:33;16.15;;;9.18;;
19016;SDS011;9641;51.494;6.670;2023-08-24T06:53:02;10.75;;;8.07;;
19016;SDS011;9641;51.494;6.670;2023-08-24T06:55:29;17.10;;;8.85;;
19016;SDS011;9641;51.494;6.670;2023-08-24T06:57:56;13.43;;;7.45;;
19016;SDS011;9641;51.494;6.670;2023-08-24T07:00:23;10.40;;;7.43;;
19016;SDS011;9641;51.494;6.670;2023-08-24T07:02:50;14.88;;;7.57;;
19016;SDS011;9641;51.494;6.670;2023-08-24T07:05:17;10.88;;;6.40;;
19016;SDS011;9641;51.494;6.670;2023-08-24T07:07:46;11.90;;;6.80;;
19016;SDS011;9641;51.494;6.670;2023-08-24T07:10:16;11.52;;;6.78;;
19016;SDS011;9641;51.494;6.670;2023-08-24T07:12:43;13.45;;;6.05;;
19016;SDS011;9641;51.494;6.670;2023-08-24T07:15:10;11.85;;;6.43;;
19016;SDS011;9641;51.494;6.670;2023-08-24T07:17:38;10.18;;;6.20;;
19016;SDS011;9641;51.494;6.670;2023-08-24T07:20:06;13.70;;;6.80;;
19016;SDS011;9641;51.494;6.670;2023-08-24T07:22:35;14.35;;;6.60;;
19016;SDS011;9641;51.494;6.670;2023-08-24T07:25:07;12.68;;;6.95;;
19016;SDS011;9641;51.494;6.670;2023-08-24T07:27:36;12.48;;;6.68;;
19016;SDS011;9641;51.494;6.670;2023-08-24T07:30:04;10.20;;;6.70;;
19016;SDS011;9641;51.494;6.670;2023-08-24T07:32:35;9.48;;;6.55;;
19016;SDS011;9641;51.494;6.670;2023-08-24T07:35:06;12.35;;;6.47;;
19016;SDS011;9641;51.494;6.670;2023-08-24T07:37:34;12.73;;;6.85;;
19016;SDS011;9641;51.494;6.670;2023-08-24T07:40:01;11.52;;;5.93;;
19016;SDS011;9641;51.494;6.670;2023-08-24T07:42:35;10.10;;;5.70;;
19016;SDS011;9641;51.494;6.670;2023-08-24T07:45:09;9.98;;;5.55;;
19016;SDS011;9641;51.494;6.670;2023-08-24T07:47:37;9.15;;;5.47;;
19016;SDS011;9641;51.494;6.670;2023-08-24T07:50:05;10.18;;;5.50;;
19016;SDS011;9641;51.494;6.670;2023-08-24T07:52:33;7.63;;;5.00;;
19016;SDS011;9641;51.494;6.670;2023-08-24T07:55:00;8.70;;;4.72;;
19016;SDS011;9641;51.494;6.670;2023-08-24T07:57:29;9.32;;;5.40;;
19016;SDS011;9641;51.494;6.670;2023-08-24T07:59:58;12.48;;;5.90;;
19016;SDS011;9641;51.494;6.670;2023-08-24T08:02:25;6.63;;;5.18;;
19016;SDS011;9641;51.494;6.670;2023-08-24T08:04:55;10.52;;;5.55;;
19016;SDS011;9641;51.494;6.670;2023-08-24T08:07:27;6.95;;;4.85;;
19016;SDS011;9641;51.494;6.670;2023-08-24T08:09:54;10.30;;;5.20;;
19016;SDS011;9641;51.494;6.670;2023-08-24T08:12:21;10.15;;;5.22;;
19016;SDS011;9641;51.494;6.670;2023-08-24T08:14:49;11.80;;;5.65;;
19016;SDS011;9641;51.494;6.670;2023-08-24T08:17:19;9.43;;;5.82;;
19016;SDS011;9641;51.494;6.670;2023-08-24T08:19:48;12.30;;;5.57;;
19016;SDS011;9641;51.494;6.670;2023-08-24T08:22:15;8.05;;;4.32;;
19016;SDS011;9641;51.494;6.670;2023-08-24T08:24:46;7.60;;;4.45;;
19016;SDS011;9641;51.494;6.670;2023-08-24T08:27:15;10.95;;;4.07;;
19016;SDS011;9641;51.494;6.670;2023-08-24T08:29:42;8.20;;;4.40;;
19016;SDS011;9641;51.494;6.670;2023-08-24T08:32:09;8.43;;;4.50;;
19016;SDS011;9641;51.494;6.670;2023-08-24T08:34:38;7.25;;;3.83;;
19016;SDS011;9641;51.494;6.670;2023-08-24T08:37:05;6.90;;;3.97;;
19016;SDS011;9641;51.494;6.670;2023-08-24T08:39:32;5.05;;;3.20;;
19016;SDS011;9641;51.494;6.670;2023-08-24T08:41:59;6.82;;;4.05;;
19016;SDS011;9641;51.494;6.670;2023-08-24T08:44:29;13.13;;;4.57;;
19016;SDS011;9641;51.494;6.670;2023-08-24T08:46:57;6.95;;;3.78;;
19016;SDS011;9641;51.494;6.670;2023-08-24T08:49:25;7.70;;;4.68;;
19016;SDS011;9641;51.494;6.670;2023-08-24T08:51:56;7.88;;;3.88;;
19016;SDS011;9641;51.494;6.670;2023-08-24T08:54:24;8.00;;;4.18;;
19016;SDS011;9641;51.494;6.670;2023-08-24T08:56:51;11.77;;;4.22;;
19016;SDS011;9641;51.494;6.670;2023-08-24T08:59:20;8.50;;;4.38;;
19016;SDS011;9641;51.494;6.670;2023-08-24T09:01:48;7.97;;;4.78;;
19016;SDS011;9641;51.494;6.670;2023-08-24T09:04:17;10.07;;;5.07;;
19016;SDS011;9641;51.494;6.670;2023-08-24T09:06:44;12.48;;;5.20;;
19016;SDS011;9641;51.494;6.670;2023-08-24T09:09:13;13.40;;;5.20;;
19016;SDS011;9641;51.494;6.670;2023-08-24T09:11:41;9.40;;;4.75;;
19016;SDS011;9641;51.494;6.670;2023-08-24T09:14:12;11.05;;;4.43;;
19016;SDS011;9641;51.494;6.670;2023-08-24T09:16:39;12.63;;;4.93;;
19016;SDS011;9641;51.494;6.670;2023-08-24T09:19:10;10.13;;;4.28;;
19016;SDS011;9641;51.494;6.670;2023-08-24T09:21:38;10.32;;;4.65;;
19016;SDS011;9641;51.494;6.670;2023-08-24T09:24:07;9.57;;;4.45;;
19016;SDS011;9641;51.494;6.670;2023-08-24T09:26:36;8.30;;;4.00;;
19016;SDS011;9641;51.494;6.670;2023-08-24T09:29:11;6.43;;;3.90;;
19016;SDS011;9641;51.494;6.670;2023-08-24T09:31:39;6.30;;;3.70;;
19016;SDS011;9641;51.494;6.670;2023-08-24T09:34:09;4.90;;;3.40;;
19016;SDS011;9641;51.494;6.670;2023-08-24T09:36:36;5.55;;;3.33;;
19016;SDS011;9641;51.494;6.670;2023-08-24T09:39:04;6.28;;;3.33;;
19016;SDS011;9641;51.494;6.670;2023-08-24T09:41:39;4.90;;;3.15;;
19016;SDS011;9641;51.494;6.670;2023-08-24T09:44:07;4.80;;;2.95;;
19016;SDS011;9641;51.494;6.670;2023-08-24T09:46:34;4.30;;;2.90;;
19016;SDS011;9641;51.494;6.670;2023-08-24T09:49:04;4.53;;;2.97;;
19016;SDS011;9641;51.494;6.670;2023-08-24T09:51:31;3.83;;;2.75;;
19016;SDS011;9641;51.494;6.670;2023-08-24T09:54:02;3.35;;;2.63;;
19016;SDS011;9641;51.494;6.670;2023-08-24T09:56:32;3.30;;;3.00;;
19016;SDS011;9641;51.494;6.670;2023-08-24T09:59:04;4.45;;;2.85;;
19016;SDS011;9641;51.494;6.670;2023-08-24T10:01:40;5.75;;;2.70;;
19016;SDS011;9641;51.494;6.670;2023-08-24T10:04:09;3.72;;;2.35;;
19016;SDS011;9641;51.494;6.670;2023-08-24T10:06:38;2.83;;;2.60;;
19016;SDS011;9641;51.494;6.670;2023-08-24T10:09:06;5.65;;;3.20;;
19016;SDS011;9641;51.494;6.670;2023-08-24T10:11:39;3.15;;;2.72;;
19016;SDS011;9641;51.494;6.670;2023-08-24T10:14:12;3.85;;;2.63;;
19016;SDS011;9641;51.494;6.670;2023-08-24T10:16:44;4.45;;;3.00;;
19016;SDS011;9641;51.494;6.670;2023-08-24T10:19:13;4.18;;;2.40;;
19016;SDS011;9641;51.494;6.670;2023-08-24T10:21:41;4.80;;;2.50;;
19016;SDS011;9641;51.494;6.670;2023-08-24T10:24:09;3.63;;;2.90;;
19016;SDS011;9641;51.494;6.670;2023-08-24T10:26:39;3.63;;;2.05;;
19016;SDS011;9641;51.494;6.670;2023-08-24T10:29:07;3.30;;;2.60;;
19016;SDS011;9641;51.494;6.670;2023-08-24T10:31:36;4.45;;;2.67;;
19016;SDS011;9641;51.494;6.670;2023-08-24T10:34:08;4.22;;;2.58;;
19016;SDS011;9641;51.494;6.670;2023-08-24T10:36:38;13.93;;;2.58;;
19016;SDS011;9641;51.494;6.670;2023-08-24T10:39:07;3.25;;;2.75;;
19016;SDS011;9641;51.494;6.670;2023-08-24T10:44:21;3.72;;;2.80;;
19016;SDS011;9641;51.494;6.670;2023-08-24T10:47:11;3.08;;;2.50;;
19016;SDS011;9641;51.494;6.670;2023-08-24T10:49:39;4.20;;;3.08;;
19016;SDS011;9641;51.494;6.670;2023-08-24T10:52:16;5.28;;;2.92;;
19016;SDS011;9641;51.494;6.670;2023-08-24T10:54:48;4.32;;;3.08;;
19016;SDS011;9641;51.494;6.670;2023-08-24T10:57:21;5.55;;;3.00;;
19016;SDS011;9641;51.494;6.670;2023-08-24T10:59:58;4.38;;;2.83;;
19016;SDS011;9641;51.494;6.670;2023-08-24T11:02:28;6.90;;;2.90;;
19016;SDS011;9641;51.494;6.670;2023-08-24T11:05:05;3.63;;;2.63;;
19016;SDS011;9641;51.494;6.670;2023-08-24T11:10:15;3.92;;;2.65;;
19016;SDS011;9641;51.494;6.670;2023-08-24T11:15:39;3.28;;;2.78;;
19016;SDS011;9641;51.494;6.670;2023-08-24T11:21:16;4.40;;;2.67;;
19016;SDS011;9641;51.494;6.670;2023-08-24T11:23:48;4.15;;;2.72;;
19016;SDS011;9641;51.494;6.670;2023-08-24T11:26:15;4.93;;;2.78;;
19016;SDS011;9641;51.494;6.670;2023-08-24T11:28:46;4.80;;;3.05;;
19016;SDS011;9641;51.494;6.670;2023-08-24T11:31:20;5.35;;;3.17;;
19016;SDS011;9641;51.494;6.670;2023-08-24T11:33:47;5.85;;;2.80;;
19016;SDS011;9641;51.494;6.670;2023-08-24T11:36:14;3.97;;;2.90;;
19016;SDS011;9641;51.494;6.670;2023-08-24T11:38:43;4.93;;;2.92;;
19016;SDS011;9641;51.494;6.670;2023-08-24T11:41:11;4.03;;;2.92;;
19016;SDS011;9641;51.494;6.670;2023-08-24T11:43:58;5.78;;;2.92;;
19016;SDS011;9641;51.494;6.670;2023-08-24T11:49:16;3.75;;;3.08;;
19016;SDS011;9641;51.494;6.670;2023-08-24T11:51:55;4.18;;;3.20;;
19016;SDS011;9641;51.494;6.670;2023-08-24T11:57:14;4.90;;;3.00;;
19016;SDS011;9641;51.494;6.670;2023-08-24T11:59:53;7.55;;;3.83;;
19016;SDS011;9641;51.494;6.670;2023-08-24T12:02:21;4.55;;;3.25;;
19016;SDS011;9641;51.494;6.670;2023-08-24T12:04:49;4.38;;;3.20;;
19016;SDS011;9641;51.494;6.670;2023-08-24T12:07:20;7.95;;;3.80;;
19016;SDS011;9641;51.494;6.670;2023-08-24T12:09:47;7.00;;;3.25;;
19016;SDS011;9641;51.494;6.670;2023-08-24T12:12:19;9.57;;;3.33;;
19016;SDS011;9641;51.494;6.670;2023-08-24T12:14:49;6.00;;;3.10;;
19016;SDS011;9641;51.494;6.670;2023-08-24T12:17:16;3.28;;;2.97;;
19016;SDS011;9641;51.494;6.670;2023-08-24T12:19:45;5.07;;;3.10;;
19016;SDS011;9641;51.494;6.670;2023-08-24T12:22:23;9.50;;;3.25;;
19016;SDS011;9641;51.494;6.670;2023-08-24T12:24:50;5.57;;;2.92;;
19016;SDS011;9641;51.494;6.670;2023-08-24T12:27:17;5.78;;;2.97;;
19016;SDS011;9641;51.494;6.670;2023-08-24T12:29:45;4.18;;;3.10;;
19016;SDS011;9641;51.494;6.670;2023-08-24T12:32:15;6.90;;;3.03;;
19016;SDS011;9641;51.494;6.670;2023-08-24T12:34:45;5.65;;;3.05;;
19016;SDS011;9641;51.494;6.670;2023-08-24T12:37:28;4.03;;;2.95;;
19016;SDS011;9641;51.494;6.670;2023-08-24T12:39:55;7.50;;;3.53;;
19016;SDS011;9641;51.494;6.670;2023-08-24T12:42:25;4.45;;;3.00;;
19016;SDS011;9641;51.494;6.670;2023-08-24T12:44:53;5.28;;;3.33;;
19016;SDS011;9641;51.494;6.670;2023-08-24T12:47:20;4.45;;;2.75;;
19016;SDS011;9641;51.494;6.670;2023-08-24T12:50:01;3.88;;;3.00;;
19016;SDS011;9641;51.494;6.670;2023-08-24T12:52:38;6.32;;;3.35;;
19016;SDS011;9641;51.494;6.670;2023-08-24T12:55:07;4.85;;;3.20;;
19016;SDS011;9641;51.494;6.670;2023-08-24T12:57:34;3.75;;;2.97;;
19016;SDS011;9641;51.494;6.670;2023-08-24T13:00:01;3.45;;;3.10;;
19016;SDS011;9641;51.494;6.670;2023-08-24T13:02:29;10.65;;;3.72;;
19016;SDS011;9641;51.494;6.670;2023-08-24T13:04:56;4.72;;;2.92;;
19016;SDS011;9641;51.494;6.670;2023-08-24T13:07:26;6.00;;;3.35;;
19016;SDS011;9641;51.494;6.670;2023-08-24T13:09:55;7.95;;;3.40;;
19016;SDS011;9641;51.494;6.670;2023-08-24T13:12:23;10.65;;;3.53;;
19016;SDS011;9641;51.494;6.670;2023-08-24T13:14:51;4.78;;;3.22;;
19016;SDS011;9641;51.494;6.670;2023-08-24T13:20:00;6.55;;;3.17;;
19016;SDS011;9641;51.494;6.670;2023-08-24T13:22:28;4.07;;;2.78;;
19016;SDS011;9641;51.494;6.670;2023-08-24T13:24:59;6.60;;;3.30;;
19016;SDS011;9641;51.494;6.670;2023-08-24T13:27:31;7.57;;;3.22;;
19016;SDS011;9641;51.494;6.670;2023-08-24T13:30:02;8.60;;;3.17;;
19016;SDS011;9641;51.494;6.670;2023-08-24T13:32:30;6.20;;;3.05;;
19016;SDS011;9641;51.494;6.670;2023-08-24T14:20:25;3.58;;;3.25;;
19016;SDS011;9641;51.494;6.670;2023-08-24T14:22:52;3.60;;;3.00;;
19016;SDS011;9641;51.494;6.670;2023-08-24T14:25:20;5.70;;;3.05;;
19016;SDS011;9641;51.494;6.670;2023-08-24T14:27:52;6.22;;;2.92;;
19016;SDS011;9641;51.494;6.670;2023-08-24T14:30:19;5.38;;;3.60;;
19016;SDS011;9641;51.494;6.670;2023-08-24T14:32:47;3.97;;;3.00;;
19016;SDS011;9641;51.494;6.670;2023-08-24T14:35:13;5.45;;;3.50;;
19016;SDS011;9641;51.494;6.670;2023-08-24T14:37:42;4.93;;;3.45;;
19016;SDS011;9641;51.494;6.670;2023-08-24T14:40:09;6.10;;;4.22;;
19016;SDS011;9641;51.494;6.670;2023-08-24T14:42:37;9.02;;;4.00;;
19016;SDS011;9641;51.494;6.670;2023-08-24T14:45:04;4.47;;;3.53;;
19016;SDS011;9641;51.494;6.670;2023-08-24T14:47:32;9.65;;;4.07;;
19016;SDS011;9641;51.494;6.670;2023-08-24T14:49:59;5.25;;;3.38;;
19016;SDS011;9641;51.494;6.670;2023-08-24T14:52:26;7.13;;;3.20;;
19016;SDS011;9641;51.494;6.670;2023-08-24T14:54:58;7.70;;;3.00;;
19016;SDS011;9641;51.494;6.670;2023-08-24T14:57:25;6.88;;;3.30;;
19016;SDS011;9641;51.494;6.670;2023-08-24T14:59:52;5.68;;;3.15;;
19016;SDS011;9641;51.494;6.670;2023-08-24T15:02:20;7.72;;;3.92;;
19016;SDS011;9641;51.494;6.670;2023-08-24T15:04:47;6.38;;;3.50;;
19016;SDS011;9641;51.494;6.670;2023-08-24T15:07:14;3.85;;;3.15;;
19016;SDS011;9641;51.494;6.670;2023-08-24T15:09:41;5.03;;;3.55;;
19016;SDS011;9641;51.494;6.670;2023-08-24T15:12:09;6.30;;;3.20;;
19016;SDS011;9641;51.494;6.670;2023-08-24T15:14:37;5.72;;;3.10;;
19016;SDS011;9641;51.494;6.670;2023-08-24T15:17:21;7.35;;;4.10;;
19016;SDS011;9641;51.494;6.670;2023-08-24T15:19:49;7.65;;;3.47;;
19016;SDS011;9641;51.494;6.670;2023-08-24T15:22:16;4.85;;;2.80;;
19016;SDS011;9641;51.494;6.670;2023-08-24T15:24:43;6.80;;;3.17;;
19016;SDS011;9641;51.494;6.670;2023-08-24T15:27:11;7.70;;;3.67;;
19016;SDS011;9641;51.494;6.670;2023-08-24T15:29:38;7.68;;;3.72;;
19016;SDS011;9641;51.494;6.670;2023-08-24T15:32:05;4.90;;;3.15;;
19016;SDS011;9641;51.494;6.670;2023-08-24T15:34:32;5.60;;;2.88;;
19016;SDS011;9641;51.494;6.670;2023-08-24T15:37:00;4.40;;;2.97;;
19016;SDS011;9641;51.494;6.670;2023-08-24T15:39:27;9.50;;;2.80;;
19016;SDS011;9641;51.494;6.670;2023-08-24T15:41:54;8.32;;;2.78;;
19016;SDS011;9641;51.494;6.670;2023-08-24T15:44:23;4.38;;;3.03;;
19016;SDS011;9641;51.494;6.670;2023-08-24T15:46:50;6.07;;;2.83;;
19016;SDS011;9641;51.494;6.670;2023-08-24T15:49:17;4.93;;;2.50;;
19016;SDS011;9641;51.494;6.670;2023-08-24T15:51:44;3.65;;;2.33;;
19016;SDS011;9641;51.494;6.670;2023-08-24T15:54:12;4.70;;;2.63;;
19016;SDS011;9641;51.494;6.670;2023-08-24T15:56:40;3.63;;;2.28;;
19016;SDS011;9641;51.494;6.670;2023-08-24T15:59:13;4.28;;;2.92;;
19016;SDS011;9641;51.494;6.670;2023-08-24T16:01:44;6.50;;;2.75;;
19016;SDS011;9641;51.494;6.670;2023-08-24T16:04:11;4.38;;;2.35;;
19016;SDS011;9641;51.494;6.670;2023-08-24T16:06:38;6.03;;;2.85;;
19016;SDS011;9641;51.494;6.670;2023-08-24T16:09:16;4.28;;;2.28;;